Time;durP1;ratioP1;P1;durP2;ratioP2;P2;SDS_P1;SDS_P2;PMS_P1;PMS_P2;Temp;Humidity;BMP_temperature;BMP_pressure;BME280_temperature;BME280_humidity;BME280_pressure;Samples;Min_cycle;Max_cycle;Signal;HPM_P1;HPM_P2
2021/07/24 00:01:04;;;;;;;;;;;;;;;16.69;100.00;98965.06;5089183;28;19974;-84
2021/07/24 00:03:31;;;;;;;;;;;;;;;16.61;100.00;98975.06;5090401;28;19924;-84
2021/07/24 00:05:58;;;;;;;;;;;;;;;16.42;100.00;98973.44;5089020;28;19928;-84
2021/07/24 00:08:25;;;;;;;;;;;;;;;17.09;100.00;98965.72;5089466;28;20391;-84
2021/07/24 00:10:52;;;;;;;;;;;;;;;16.84;100.00;98961.16;5090253;28;19932;-84
2021/07/24 00:13:19;;;;;;;;;;;;;;;17.07;100.00;98954.16;5088636;28;19946;-84
2021/07/24 00:15:46;;;;;;;;;;;;;;;16.65;100.00;98947.47;5089121;28;19924;-84
2021/07/24 00:18:13;;;;;;;;;;;;;;;16.82;100.00;98951.59;5090064;28;20371;-84
2021/07/24 00:20:43;;;;;;;;;;;;;;;16.64;100.00;98952.38;5106089;28;19925;-84
2021/07/24 00:23:11;;;;;;;;;;;;;;;16.80;100.00;98948.44;5122459;27;20383;-84
2021/07/24 00:25:40;;;;;;;;;;;;;;;17.11;100.00;98932.19;5092135;28;19928;-84
2021/07/24 00:28:07;;;;;;;;;;;;;;;17.02;100.00;98935.00;5058437;28;19947;-84
2021/07/24 00:30:38;;;;;;;;;;;;;;;17.00;100.00;98929.03;5058937;28;20398;-82
2021/07/24 00:33:10;;;;;;;;;;;;;;;16.98;100.00;98928.75;5059281;28;19932;-84
2021/07/24 00:35:38;;;;;;;;;;;;;;;17.20;100.00;98920.88;5058335;28;20015;-84
2021/07/24 00:38:07;;;;;;;;;;;;;;;16.91;100.00;98917.75;5058527;28;20365;-84
2021/07/24 00:40:40;;;;;;;;;;;;;;;17.12;100.00;98906.31;5058075;28;19924;-82
2021/07/24 00:43:09;;;;;;;;;;;;;;;17.13;100.00;98898.63;5058414;28;19967;-82
2021/07/24 00:45:55;;;;;;;;;;;;;;;17.02;100.00;98904.75;5044446;28;19931;-82
2021/07/24 00:48:24;;;;;;;;;;;;;;;16.90;100.00;98890.78;5063214;28;19959;-82
2021/07/24 00:51:26;;;;;;;;;;;;;;;17.03;100.00;98897.06;5064067;28;20403;-82
2021/07/24 00:53:56;;;;;;;;;;;;;;;17.31;100.00;98878.84;5074829;28;19924;-81
2021/07/24 00:56:25;;;;;;;;;;;;;;;17.01;100.00;98868.53;5074672;28;20414;-84
2021/07/24 00:58:54;;;;;;;;;;;;;;;17.36;100.00;98866.88;5074734;28;20019;-83
2021/07/24 01:01:22;;;;;;;;;;;;;;;17.13;100.00;98853.47;5091295;28;19928;-81
2021/07/24 01:03:50;;;;;;;;;;;;;;;16.95;100.00;98859.13;5074718;28;19932;-80
2021/07/24 01:06:17;;;;;;;;;;;;;;;16.96;100.00;98844.56;5053076;28;19925;-81
2021/07/24 01:08:45;;;;;;;;;;;;;;;17.34;100.00;98835.53;5087952;28;19924;-81
2021/07/24 01:11:12;;;;;;;;;;;;;;;17.09;100.00;98827.41;5074186;28;19951;-81
2021/07/24 01:13:40;;;;;;;;;;;;;;;17.18;100.00;98821.75;5074179;28;19925;-81
2021/07/24 01:16:08;;;;;;;;;;;;;;;17.25;100.00;98815.81;5057784;28;19925;-81
2021/07/24 01:18:36;;;;;;;;;;;;;;;17.50;100.00;98813.41;5041581;28;19931;-82
2021/07/24 01:21:07;;;;;;;;;;;;;;;17.50;100.00;98812.59;5044786;28;20065;-82
2021/07/24 01:23:41;;;;;;;;;;;;;;;17.47;100.00;98810.72;5040877;28;19931;-81
2021/07/24 01:26:09;;;;;;;;;;;;;;;17.87;100.00;98799.91;5069935;28;19986;-82
2021/07/24 01:28:37;;;;;;;;;;;;;;;17.24;100.00;98792.41;5057589;28;19932;-81
2021/07/24 01:31:07;;;;;;;;;;;;;;;17.38;100.00;98788.94;5073918;28;19974;-81
2021/07/24 01:33:39;;;;;;;;;;;;;;;17.12;100.00;98789.78;5090875;28;19929;-84
2021/07/24 01:36:07;;;;;;;;;;;;;;;17.33;100.00;98783.13;5073137;28;19931;-84
2021/07/24 01:38:38;;;;;;;;;;;;;;;17.40;100.00;98774.34;5073675;28;20381;-84
2021/07/24 01:41:09;;;;;;;;;;;;;;;17.36;100.00;98765.22;5058111;28;20443;-84
2021/07/24 01:43:39;;;;;;;;;;;;;;;17.53;100.00;98766.44;5073694;28;19925;-84
2021/07/24 01:46:07;;;;;;;;;;;;;;;17.11;100.00;98760.00;5073990;28;20504;-84
2021/07/24 01:49:19;;;;;;;;;;;;;;;17.36;100.00;98760.38;5044798;28;19924;-81
2021/07/24 01:54:46;;;;;;;;;;;;;;;17.25;100.00;98748.03;5043698;28;20286;-81
2021/07/24 01:57:14;;;;;;;;;;;;;;;17.15;100.00;98754.94;5039520;28;19924;-81
2021/07/24 02:01:46;;;;;;;;;;;;;;;17.16;100.00;98750.88;5132480;27;19912;-83
2021/07/24 02:04:16;;;;;;;;;;;;;;;17.17;100.00;98741.16;5097362;28;19923;-82
2021/07/24 02:06:48;;;;;;;;;;;;;;;16.84;100.00;98741.06;5113969;28;19930;-83
2021/07/24 02:09:26;;;;;;;;;;;;;;;17.19;100.00;98733.75;5096800;28;19938;-83
2021/07/24 02:12:01;;;;;;;;;;;;;;;17.04;100.00;98734.94;5060364;28;19930;-83
2021/07/24 02:14:36;;;;;;;;;;;;;;;17.18;100.00;98722.94;5129471;28;19931;-83
2021/07/24 02:17:10;;;;;;;;;;;;;;;17.38;100.00;98723.19;5101016;28;19924;-83
2021/07/24 02:19:39;;;;;;;;;;;;;;;16.71;100.00;98726.38;5113618;28;19959;-83
2021/07/24 02:22:06;;;;;;;;;;;;;;;17.08;100.00;98721.44;5096479;28;20016;-82
2021/07/24 02:24:41;;;;;;;;;;;;;;;17.18;100.00;98722.94;5113953;28;19924;-83
2021/07/24 02:27:09;;;;;;;;;;;;;;;17.01;100.00;98721.78;5096946;28;19930;-83
2021/07/24 02:29:42;;;;;;;;;;;;;;;17.14;100.00;98713.88;5096916;28;19924;-82
2021/07/24 02:32:12;;;;;;;;;;;;;;;16.99;100.00;98708.13;5147539;27;20002;-83
2021/07/24 02:34:40;;;;;;;;;;;;;;;17.11;100.00;98700.72;5130400;28;19924;-83
2021/07/24 02:37:07;;;;;;;;;;;;;;;17.35;100.00;98702.34;5127306;28;19955;-83
2021/07/24 02:39:34;;;;;;;;;;;;;;;17.45;100.00;98689.75;5120484;28;20400;-83
2021/07/24 02:42:01;;;;;;;;;;;;;;;17.37;100.00;98699.81;5130045;28;20411;-83
2021/07/24 02:44:33;;;;;;;;;;;;;;;17.17;100.00;98691.13;5131043;28;20060;-83
2021/07/24 02:47:00;;;;;;;;;;;;;;;17.21;100.00;98702.22;5131345;28;19930;-83
2021/07/24 02:49:28;;;;;;;;;;;;;;;17.03;100.00;98691.00;5113440;28;19999;-82
2021/07/24 02:51:57;;;;;;;;;;;;;;;17.12;100.00;98688.16;5112658;28;19993;-83
2021/07/24 02:54:27;;;;;;;;;;;;;;;17.46;100.00;98696.19;5098655;28;19924;-83
2021/07/24 02:56:56;;;;;;;;;;;;;;;17.36;100.00;98697.47;5096429;28;20056;-83
2021/07/24 02:59:23;;;;;;;;;;;;;;;17.16;100.00;98683.91;5112635;28;19938;-83
2021/07/24 03:01:51;;;;;;;;;;;;;;;17.15;100.00;98675.91;5102033;28;20281;-82
2021/07/24 03:04:18;;;;;;;;;;;;;;;16.98;100.00;98677.56;5127599;28;20014;-83
2021/07/24 03:06:45;;;;;;;;;;;;;;;17.05;100.00;98665.94;5112512;28;20006;-83
2021/07/24 03:09:12;;;;;;;;;;;;;;;17.35;100.00;98662.81;5112681;28;19924;-82
2021/07/24 03:11:39;;;;;;;;;;;;;;;17.44;100.00;98664.81;5125621;28;20287;-83
2021/07/24 03:14:07;;;;;;;;;;;;;;;17.30;100.00;98660.63;5117234;28;19931;-83
2021/07/24 03:16:34;;;;;;;;;;;;;;;16.94;100.00;98655.16;5082274;28;19924;-83
2021/07/24 03:19:01;;;;;;;;;;;;;;;16.96;100.00;98663.13;5098769;28;20390;-83
2021/07/24 03:21:28;;;;;;;;;;;;;;;17.11;100.00;98658.38;5098523;28;19924;-83
2021/07/24 03:23:56;;;;;;;;;;;;;;;16.69;100.00;98666.81;5099326;28;20324;-78
2021/07/24 03:26:23;;;;;;;;;;;;;;;17.04;100.00;98653.84;5098802;28;19924;-81
2021/07/24 03:28:50;;;;;;;;;;;;;;;17.05;100.00;98649.78;5062071;28;19924;-80
2021/07/24 03:31:17;;;;;;;;;;;;;;;17.10;100.00;98642.72;5129360;27;20421;-80
2021/07/24 03:33:44;;;;;;;;;;;;;;;16.95;100.00;98650.31;5117149;28;20031;-79
2021/07/24 03:36:11;;;;;;;;;;;;;;;16.95;100.00;98636.19;5078324;28;20408;-80
2021/07/24 03:38:38;;;;;;;;;;;;;;;16.83;100.00;98635.13;5110820;28;19977;-81
2021/07/24 03:41:05;;;;;;;;;;;;;;;17.14;100.00;98629.19;5081964;28;20024;-81
2021/07/24 03:43:32;;;;;;;;;;;;;;;17.17;100.00;98628.22;5117226;28;20374;-80
2021/07/24 03:45:59;;;;;;;;;;;;;;;17.57;100.00;98623.00;5078260;28;19928;-82
2021/07/24 03:48:26;;;;;;;;;;;;;;;17.58;100.00;98624.56;5090859;28;19924;-80
2021/07/24 03:50:53;;;;;;;;;;;;;;;17.54;100.00;98623.94;5048472;28;20372;-80
2021/07/24 03:53:21;;;;;;;;;;;;;;;17.57;100.00;98618.13;5088683;28;20569;-80
2021/07/24 03:55:51;;;;;;;;;;;;;;;17.28;100.00;98628.50;5098078;28;20259;-80
2021/07/24 03:58:19;;;;;;;;;;;;;;;17.05;100.00;98635.66;5075220;28;20003;-80
2021/07/24 04:00:48;;;;;;;;;;;;;;;17.16;100.00;98641.56;5113893;28;20346;-80
2021/07/24 04:03:18;;;;;;;;;;;;;;;16.97;100.00;98640.09;5098099;28;20018;-80
2021/07/24 04:05:45;;;;;;;;;;;;;;;17.06;100.00;98642.06;5114898;28;19923;-80
2021/07/24 04:08:12;;;;;;;;;;;;;;;16.98;100.00;98638.06;5068758;28;19924;-80
2021/07/24 04:10:40;;;;;;;;;;;;;;;16.96;100.00;98635.72;5113439;28;20467;-80
2021/07/24 04:13:08;;;;;;;;;;;;;;;17.21;100.00;98637.31;5098560;28;20381;-80
2021/07/24 04:15:36;;;;;;;;;;;;;;;16.62;100.00;98622.03;5080561;28;20390;-80
2021/07/24 04:18:06;;;;;;;;;;;;;;;17.01;100.00;98623.75;5115886;28;19958;-80
2021/07/24 04:20:35;;;;;;;;;;;;;;;17.21;100.00;98623.19;5081042;28;19927;-80
2021/07/24 04:23:02;;;;;;;;;;;;;;;17.04;100.00;98613.56;5131384;27;19931;-80
2021/07/24 04:25:30;;;;;;;;;;;;;;;16.76;100.00;98626.22;5115724;28;19934;-80
2021/07/24 04:27:57;;;;;;;;;;;;;;;16.76;100.00;98637.50;5115898;28;19924;-80
2021/07/24 04:30:24;;;;;;;;;;;;;;;16.59;100.00;98647.56;5097659;28;20373;-80
2021/07/24 04:32:51;;;;;;;;;;;;;;;16.86;100.00;98670.06;5097121;28;19977;-80
2021/07/24 04:35:18;;;;;;;;;;;;;;;16.40;100.00;98665.75;5116195;28;19923;-80
2021/07/24 04:37:45;;;;;;;;;;;;;;;16.44;100.00;98653.09;5063410;28;19931;-80
2021/07/24 04:40:12;;;;;;;;;;;;;;;16.61;100.00;98653.53;5115698;28;19930;-80
2021/07/24 04:42:39;;;;;;;;;;;;;;;15.99;100.00;98670.78;5115630;28;20378;-80
2021/07/24 04:45:07;;;;;;;;;;;;;;;16.63;100.00;98680.00;5098081;28;19928;-80
2021/07/24 04:47:34;;;;;;;;;;;;;;;16.56;100.00;98677.50;5131228;27;19924;-80
2021/07/24 04:50:01;;;;;;;;;;;;;;;16.67;100.00;98671.38;5097144;28;19924;-80
2021/07/24 04:52:29;;;;;;;;;;;;;;;16.38;100.00;98673.91;5115332;28;19923;-80
2021/07/24 04:54:58;;;;;;;;;;;;;;;16.34;100.00;98684.56;5096970;28;19930;-80
2021/07/24 04:57:28;;;;;;;;;;;;;;;16.56;100.00;98688.78;5115279;28;20008;-80
2021/07/24 04:59:56;;;;;;;;;;;;;;;16.70;100.00;98685.31;5115179;28;19946;-80
2021/07/24 05:02:23;;;;;;;;;;;;;;;16.79;100.00;98684.50;5096779;28;19923;-80
2021/07/24 05:04:50;;;;;;;;;;;;;;;16.18;100.00;98706.19;5114961;28;19972;-80
2021/07/24 05:07:18;;;;;;;;;;;;;;;16.09;100.00;98716.66;5114975;28;19923;-80
2021/07/24 05:09:46;;;;;;;;;;;;;;;16.25;100.00;98694.59;5097398;28;19924;-80
2021/07/24 05:12:13;;;;;;;;;;;;;;;16.45;100.00;98696.19;5097190;28;20313;-80
2021/07/24 05:14:40;;;;;;;;;;;;;;;16.64;100.00;98697.72;5096854;28;19927;-80
2021/07/24 05:17:09;;;;;;;;;;;;;;;16.56;100.00;98702.09;5096494;28;19930;-80
2021/07/24 05:19:42;;;;;;;;;;;;;;;16.25;100.00;98705.09;5097109;28;19924;-80
2021/07/24 05:22:11;;;;;;;;;;;;;;;15.89;100.00;98702.22;5096686;28;19931;-80
2021/07/24 05:24:38;;;;;;;;;;;;;;;15.90;100.00;98710.22;5096936;28;19930;-80
2021/07/24 05:27:06;;;;;;;;;;;;;;;16.23;100.00;98713.22;5078559;28;19978;-80
2021/07/24 05:29:33;;;;;;;;;;;;;;;16.07;100.00;98708.66;5079991;28;19924;-80
2021/07/24 05:32:00;;;;;;;;;;;;;;;16.50;100.00;98704.00;5114498;28;19928;-80
2021/07/24 05:34:27;;;;;;;;;;;;;;;16.37;100.00;98703.34;5130733;27;19924;-80
2021/07/24 05:36:54;;;;;;;;;;;;;;;16.41;100.00;98695.50;5076414;28;20281;-80
2021/07/24 05:39:21;;;;;;;;;;;;;;;16.66;100.00;98683.91;5113207;28;19923;-80
2021/07/24 05:41:48;;;;;;;;;;;;;;;16.54;100.00;98691.28;5096453;28;19930;-80
2021/07/24 05:44:17;;;;;;;;;;;;;;;16.66;100.00;98695.22;5082316;28;19923;-80
2021/07/24 05:46:52;;;;;;;;;;;;;;;16.63;100.00;98696.16;5113870;28;19927;-80
2021/07/24 05:49:37;;;;;;;;;;;;;;;16.61;100.00;98687.38;5080529;28;19924;-80
2021/07/24 05:52:09;;;;;;;;;;;;;;;16.72;100.00;98690.50;5114636;28;19980;-80
2021/07/24 05:54:36;;;;;;;;;;;;;;;16.69;100.00;98682.97;5114530;28;19928;-80
2021/07/24 05:57:04;;;;;;;;;;;;;;;16.59;100.00;98676.56;5114481;28;19931;-80
2021/07/24 05:59:35;;;;;;;;;;;;;;;16.45;100.00;98667.97;5113764;28;19931;-79
2021/07/24 06:02:05;;;;;;;;;;;;;;;16.48;100.00;98670.63;5095874;28;20022;-80
2021/07/24 06:04:33;;;;;;;;;;;;;;;16.74;100.00;98676.66;5096158;28;19924;-80
2021/07/24 06:07:00;;;;;;;;;;;;;;;16.85;100.00;98668.50;5114187;28;19967;-80
2021/07/24 06:09:27;;;;;;;;;;;;;;;16.55;100.00;98681.59;5079090;28;19938;-80
2021/07/24 06:11:55;;;;;;;;;;;;;;;16.63;100.00;98682.03;5113045;28;19924;-80
2021/07/24 06:14:22;;;;;;;;;;;;;;;16.91;100.00;98683.53;5075593;28;19924;-80
2021/07/24 06:16:50;;;;;;;;;;;;;;;16.63;100.00;98690.50;5109746;28;19923;-80
2021/07/24 06:19:17;;;;;;;;;;;;;;;16.45;100.00;98701.81;5096485;28;19924;-80
2021/07/24 06:21:44;;;;;;;;;;;;;;;16.14;100.00;98707.59;5114396;28;19930;-80
2021/07/24 06:24:12;;;;;;;;;;;;;;;16.58;100.00;98710.88;5100393;28;20297;-80
2021/07/24 06:26:39;;;;;;;;;;;;;;;16.37;100.00;98717.44;5077941;28;19924;-80
2021/07/24 06:29:06;;;;;;;;;;;;;;;16.31;100.00;98708.84;5112609;28;19931;-79
2021/07/24 06:31:36;;;;;;;;;;;;;;;16.48;100.00;98710.09;5077934;28;19924;-80
2021/07/24 06:34:05;;;;;;;;;;;;;;;16.34;100.00;98712.75;5078994;28;19924;-80
2021/07/24 06:36:32;;;;;;;;;;;;;;;16.31;100.00;98716.50;5079145;28;19924;-80
2021/07/24 06:39:00;;;;;;;;;;;;;;;16.41;100.00;98707.56;5095478;28;19931;-79
2021/07/24 06:41:30;;;;;;;;;;;;;;;16.25;100.00;98711.50;5103350;28;20018;-80
2021/07/24 06:43:57;;;;;;;;;;;;;;;16.11;100.00;98717.75;5079068;28;19936;-80
2021/07/24 06:46:24;;;;;;;;;;;;;;;16.26;100.00;98712.28;5096507;28;20290;-80
2021/07/24 06:48:51;;;;;;;;;;;;;;;16.24;100.00;98712.75;5099482;28;19928;-80
2021/07/24 06:51:18;;;;;;;;;;;;;;;16.32;100.00;98709.59;5118014;28;19924;-80
2021/07/24 06:53:45;;;;;;;;;;;;;;;16.52;100.00;98707.13;5117767;28;19938;-80
2021/07/24 06:56:12;;;;;;;;;;;;;;;16.24;100.00;98709.94;5099314;28;19931;-80
2021/07/24 06:58:39;;;;;;;;;;;;;;;16.41;100.00;98709.59;5117807;28;20262;-79
2021/07/24 07:01:09;;;;;;;;;;;;;;;16.33;100.00;98711.19;5068162;28;19939;-81
2021/07/24 07:03:36;;;;;;;;;;;;;;;16.23;100.00;98714.03;5094026;28;19925;-82
2021/07/24 07:06:05;;;;;;;;;;;;;;;16.07;100.00;98724.78;5086644;28;19930;-83
2021/07/24 07:08:33;;;;;;;;;;;;;;;15.89;100.00;98716.31;5092913;28;20023;-82
2021/07/24 07:11:04;;;;;;;;;;;;;;;16.09;100.00;98723.09;5087631;28;19924;-82
2021/07/24 07:13:31;;;;;;;;;;;;;;;16.35;100.00;98714.31;5096514;28;20031;-82
2021/07/24 07:16:03;;;;;;;;;;;;;;;16.33;100.00;98705.56;5078987;28;19980;-82
2021/07/24 07:18:31;;;;;;;;;;;;;;;16.58;100.00;98720.13;5095284;28;20391;-82
2021/07/24 07:20:58;;;;;;;;;;;;;;;16.02;100.00;98725.44;5095660;28;19931;-83
2021/07/24 07:23:26;;;;;;;;;;;;;;;16.12;100.00;98724.19;5059284;28;19924;-83
2021/07/24 07:25:53;;;;;;;;;;;;;;;16.19;100.00;98727.47;5080972;28;19931;-82
2021/07/24 07:28:20;;;;;;;;;;;;;;;16.42;100.00;98722.47;5095211;28;20305;-82
2021/07/24 07:30:48;;;;;;;;;;;;;;;16.30;100.00;98717.78;5100648;28;19924;-83
2021/07/24 07:33:16;;;;;;;;;;;;;;;16.23;100.00;98708.38;5072197;28;19973;-80
2021/07/24 07:35:43;;;;;;;;;;;;;;;16.55;100.00;98700.53;5077156;28;19924;-81
2021/07/24 07:38:10;;;;;;;;;;;;;;;16.39;100.00;98703.69;5084811;28;19931;-82
2021/07/24 07:40:40;;;;;;;;;;;;;;;16.53;100.00;98695.38;5093120;28;19931;-81
2021/07/24 07:43:11;;;;;;;;;;;;;;;16.56;100.00;98702.09;5072095;28;19924;-82
2021/07/24 07:45:40;;;;;;;;;;;;;;;16.45;100.00;98713.09;5076445;28;20873;-82
2021/07/24 07:48:08;;;;;;;;;;;;;;;16.51;100.00;98716.84;5084815;28;19924;-80
2021/07/24 07:50:35;;;;;;;;;;;;;;;16.24;100.00;98715.56;5080796;28;19928;-80
2021/07/24 07:53:03;;;;;;;;;;;;;;;16.45;100.00;98707.47;5087105;28;19924;-79
2021/07/24 07:55:30;;;;;;;;;;;;;;;16.36;100.00;98711.03;5085287;28;19928;-80
2021/07/24 07:57:57;;;;;;;;;;;;;;;16.20;100.00;98702.88;5082932;28;19932;-76
2021/07/24 08:00:24;;;;;;;;;;;;;;;16.56;100.00;98710.56;5080922;28;20456;-82
2021/07/24 08:02:53;;;;;;;;;;;;;;;16.44;100.00;98714.34;5087575;28;19924;-81
2021/07/24 08:05:21;;;;;;;;;;;;;;;16.62;100.00;98700.22;5083800;28;20015;-84
2021/07/24 08:07:48;;;;;;;;;;;;;;;16.78;100.00;98697.06;5079560;28;19932;-85
2021/07/24 08:10:15;;;;;;;;;;;;;;;17.02;100.00;98689.47;5071477;28;19929;-86
2021/07/24 08:12:42;;;;;;;;;;;;;;;16.92;100.00;98690.75;5061112;28;19932;-85
2021/07/24 08:15:09;;;;;;;;;;;;;;;16.65;100.00;98702.06;5071398;28;20464;-85
2021/07/24 08:17:39;;;;;;;;;;;;;;;16.96;100.00;98697.00;5083253;28;20427;-85
2021/07/24 08:20:06;;;;;;;;;;;;;;;17.06;100.00;98688.03;5058898;28;19932;-85
2021/07/24 08:22:34;;;;;;;;;;;;;;;16.81;100.00;98685.59;5093517;28;20076;-86
2021/07/24 08:25:01;;;;;;;;;;;;;;;17.28;100.00;98676.50;5091626;28;19930;-84
2021/07/24 08:27:28;;;;;;;;;;;;;;;16.92;100.00;98679.47;5075118;28;19924;-84
2021/07/24 08:29:55;;;;;;;;;;;;;;;17.19;100.00;98685.00;5080723;28;19925;-86
2021/07/24 08:32:22;;;;;;;;;;;;;;;17.54;100.00;98675.59;5095154;28;19930;-86
2021/07/24 08:34:50;;;;;;;;;;;;;;;17.48;100.00;98676.72;5092008;28;19931;-84
2021/07/24 08:37:18;;;;;;;;;;;;;;;17.51;100.00;98675.75;5082943;28;19929;-82
2021/07/24 08:39:45;;;;;;;;;;;;;;;17.38;100.00;98675.19;5089487;28;20029;-81
2021/07/24 08:42:29;;;;;;;;;;;;;;;17.62;100.00;98679.63;5085005;28;19924;-81
2021/07/24 08:45:01;;;;;;;;;;;;;;;17.10;100.00;98690.69;5089519;28;19924;-80
2021/07/24 08:47:29;;;;;;;;;;;;;;;17.28;100.00;98682.16;5091907;28;20007;-82
2021/07/24 08:49:56;;;;;;;;;;;;;;;17.54;100.00;98686.09;5074254;28;19951;-83
2021/07/24 08:52:25;;;;;;;;;;;;;;;17.31;100.00;98684.00;5090800;28;19931;-83
2021/07/24 08:54:52;;;;;;;;;;;;;;;17.24;100.00;98684.34;5090449;28;19973;-82
2021/07/24 08:57:22;;;;;;;;;;;;;;;17.66;100.00;98690.75;5088231;28;19931;-82
2021/07/24 08:59:50;;;;;;;;;;;;;;;17.44;100.00;98676.91;5058100;28;19946;-83
2021/07/24 09:02:23;;;;;;;;;;;;;;;17.64;100.00;98674.28;5068980;28;19928;-80
2021/07/24 09:04:51;;;;;;;;;;;;;;;17.22;100.00;98665.06;5073318;28;19925;-81
2021/07/24 09:07:18;;;;;;;;;;;;;;;17.83;100.00;98663.63;5073256;28;19924;-82
2021/07/24 09:09:46;;;;;;;;;;;;;;;17.74;100.00;98666.53;5060384;28;19924;-81
2021/07/24 09:12:13;;;;;;;;;;;;;;;17.55;100.00;98665.09;5056694;28;19931;-81
2021/07/24 09:14:40;;;;;;;;;;;;;;;17.87;100.00;98664.25;5074746;28;19925;-82
2021/07/24 09:17:09;;;;;;;;;;;;;;;17.61;100.00;98663.16;5060861;28;20295;-79
2021/07/24 09:19:36;;;;;;;;;;;;;;;17.47;100.00;98664.66;5066679;28;19932;-80
2021/07/24 09:22:03;;;;;;;;;;;;;;;17.95;100.00;98654.13;5063227;28;19930;-81
2021/07/24 09:24:31;;;;;;;;;;;;;;;17.73;100.00;98662.94;5060274;28;19936;-79
2021/07/24 09:26:59;;;;;;;;;;;;;;;17.89;100.00;98667.34;5070234;28;19925;-81
2021/07/24 09:29:26;;;;;;;;;;;;;;;17.67;100.00;98666.88;5070277;28;19931;-81
2021/07/24 09:31:55;;;;;;;;;;;;;;;16.56;100.00;98673.91;5049708;28;19925;-80
2021/07/24 09:34:39;;;;;;;;;;;;;;;17.29;100.00;98686.53;5066991;28;19979;-79
2021/07/24 09:37:22;;;;;;;;;;;;;;;17.02;100.00;98683.81;5070577;28;20068;-80
2021/07/24 09:39:49;;;;;;;;;;;;;;;17.53;100.00;98690.19;5054199;28;19947;-79
2021/07/24 09:42:17;;;;;;;;;;;;;;;17.91;100.00;98676.13;5069236;28;19924;-79
2021/07/24 09:44:44;;;;;;;;;;;;;;;18.33;100.00;98668.25;5065474;28;19925;-80
2021/07/24 09:47:26;;;;;;;;;;;;;;;17.69;100.00;98670.03;5073601;28;20140;-81
2021/07/24 09:50:07;;;;;;;;;;;;;;;17.31;100.00;98672.72;5067598;28;19932;-80
2021/07/24 09:52:47;;;;;;;;;;;;;;;17.79;100.00;98668.69;5066094;28;19929;-80
2021/07/24 09:55:20;;;;;;;;;;;;;;;17.67;100.00;98669.72;5070285;28;20019;-80
2021/07/24 09:57:48;;;;;;;;;;;;;;;17.98;100.00;98664.44;5067678;28;19925;-80
2021/07/24 10:00:22;;;;;;;;;;;;;;;17.95;100.00;98656.94;5056322;28;19930;-82
2021/07/24 10:03:03;;;;;;;;;;;;;;;17.37;100.00;98653.88;5094081;28;19924;-81
2021/07/24 10:05:40;;;;;;;;;;;;;;;17.73;100.00;98637.50;5089652;28;20010;-81
2021/07/24 10:08:12;;;;;;;;;;;;;;;18.08;100.00;98629.22;5094003;28;19924;-82
2021/07/24 10:10:44;;;;;;;;;;;;;;;18.62;100.00;98622.25;5081054;28;19924;-81
2021/07/24 10:13:12;;;;;;;;;;;;;;;18.89;100.00;98613.44;5085241;28;20333;-79
2021/07/24 10:15:41;;;;;;;;;;;;;;;18.97;100.00;98604.09;5098513;28;19924;-79
2021/07/24 10:18:09;;;;;;;;;;;;;;;18.92;100.00;98607.59;5093990;28;19930;-79
2021/07/24 10:20:44;;;;;;;;;;;;;;;19.23;100.00;98599.34;5082587;28;20031;-81
2021/07/24 10:23:13;;;;;;;;;;;;;;;19.26;100.00;98592.69;5100854;28;19935;-81
2021/07/24 10:25:58;;;;;;;;;;;;;;;19.65;100.00;98591.19;5094132;28;19924;-81
2021/07/24 10:28:38;;;;;;;;;;;;;;;19.72;100.00;98592.03;5096423;28;19924;-81
2021/07/24 10:31:13;;;;;;;;;;;;;;;19.72;100.00;98577.84;5083828;28;19924;-81
2021/07/24 10:33:40;;;;;;;;;;;;;;;19.44;100.00;98581.13;5096521;28;20342;-81
2021/07/24 10:36:11;;;;;;;;;;;;;;;18.95;100.00;98589.63;5096048;28;19924;-81
2021/07/24 10:38:55;;;;;;;;;;;;;;;19.27;100.00;98588.59;5096357;28;19924;-81
2021/07/24 10:41:22;;;;;;;;;;;;;;;19.59;100.00;98586.72;5095756;28;19935;-81
2021/07/24 10:43:58;;;;;;;;;;;;;;;19.83;100.00;98580.84;5095955;28;19924;-81
2021/07/24 10:46:44;;;;;;;;;;;;;;;19.89;100.00;98576.00;5079370;28;20011;-82
2021/07/24 10:49:21;;;;;;;;;;;;;;;20.27;100.00;98556.59;5096196;28;19928;-81
2021/07/24 10:51:54;;;;;;;;;;;;;;;20.08;100.00;98552.50;5096304;28;19931;-81
2021/07/24 10:54:22;;;;;;;;;;;;;;;20.11;100.00;98542.22;5096561;28;20007;-81
2021/07/24 10:56:50;;;;;;;;;;;;;;;20.27;100.00;98541.63;5106101;28;20320;-80
2021/07/24 10:59:18;;;;;;;;;;;;;;;20.24;100.00;98540.56;5080890;28;20375;-80
2021/07/24 11:01:51;;;;;;;;;;;;;;;20.44;100.00;98534.03;5086039;28;19931;-81
2021/07/24 11:04:36;;;;;;;;;;;;;;;20.25;100.00;98532.84;5108881;28;19932;-81
2021/07/24 11:07:22;;;;;;;;;;;;;;;20.14;100.00;98529.91;5066408;28;20304;-81
2021/07/24 11:10:05;;;;;;;;;;;;;;;20.17;100.00;98529.69;5086856;28;19928;-82
2021/07/24 11:12:36;;;;;;;;;;;;;;;20.33;100.00;98516.91;5076743;28;20344;-86
2021/07/24 11:15:04;;;;;;;;;;;;;;;20.64;100.00;98505.59;5076281;28;19935;-85
2021/07/24 11:17:31;;;;;;;;;;;;;;;20.55;100.00;98503.72;5061558;28;19924;-90
2021/07/24 11:20:03;;;;;;;;;;;;;;;20.55;100.00;98514.28;5089759;28;19925;-91
2021/07/24 11:22:30;;;;;;;;;;;;;;;20.69;100.00;98507.69;5069067;28;19924;-88
2021/07/24 11:24:58;;;;;;;;;;;;;;;20.49;100.00;98511.38;5094823;28;19931;-93
2021/07/24 11:27:26;;;;;;;;;;;;;;;20.62;100.00;98513.81;5062373;28;19927;-90
2021/07/24 11:30:06;;;;;;;;;;;;;;;20.52;100.00;98503.94;5095154;28;20447;-94
2021/07/24 11:32:33;;;;;;;;;;;;;;;20.32;100.00;98518.22;5078292;28;20459;-92
2021/07/24 11:35:06;;;;;;;;;;;;;;;20.55;100.00;98508.63;5059681;28;19932;-88
2021/07/24 11:37:34;;;;;;;;;;;;;;;20.59;100.00;98517.66;5094906;28;20380;-85
2021/07/24 11:40:02;;;;;;;;;;;;;;;20.29;100.00;98514.31;5059022;28;19925;-85
2021/07/24 11:42:29;;;;;;;;;;;;;;;20.43;100.00;98509.81;5092727;28;20357;-91
2021/07/24 11:44:56;;;;;;;;;;;;;;;20.98;100.00;98513.06;5077618;28;20382;-89
2021/07/24 11:47:23;;;;;;;;;;;;;;;19.97;100.00;98517.56;5088705;28;19929;-81
2021/07/24 11:49:51;;;;;;;;;;;;;;;19.89;100.00;98524.97;5093268;28;19931;-80
2021/07/24 11:52:22;;;;;;;;;;;;;;;20.13;100.00;98525.53;5093512;28;20305;-79
2021/07/24 11:54:50;;;;;;;;;;;;;;;20.31;100.00;98534.44;5089738;28;19931;-80
2021/07/24 11:57:28;;;;;;;;;;;;;;;20.56;100.00;98524.34;5106798;28;19931;-79
2021/07/24 11:59:55;;;;;;;;;;;;;;;21.06;100.00;98511.31;5089367;28;20526;-80
2021/07/24 12:02:22;;;;;;;;;;;;;;;21.88;100.00;98502.41;5104642;27;19923;-81
2021/07/24 12:04:49;;;;;;;;;;;;;;;21.90;100.00;98493.34;5086244;28;20632;-82
2021/07/24 12:07:18;;;;;;;;;;;;;;;21.68;100.00;98479.03;5094426;28;19930;-80
2021/07/24 12:09:46;;;;;;;;;;;;;;;21.98;100.00;98485.84;5113263;28;20015;-81
2021/07/24 12:12:13;;;;;;;;;;;;;;;22.16;100.00;98486.16;5113590;27;19924;-81
2021/07/24 12:14:40;;;;;;;;;;;;;;;21.96;100.00;98483.53;5082732;28;19930;-80
2021/07/24 12:17:11;;;;;;;;;;;;;;;21.82;100.00;98484.53;5126066;27;20373;-80
2021/07/24 12:19:42;;;;;;;;;;;;;;;21.73;100.00;98495.34;5104683;28;20309;-81
2021/07/24 12:22:18;;;;;;;;;;;;;;;22.38;100.00;98502.47;5097288;28;19924;-81
2021/07/24 12:24:46;;;;;;;;;;;;;;;22.68;100.00;98503.53;5097634;28;20030;-81
2021/07/24 12:27:14;;;;;;;;;;;;;;;22.72;100.00;98493.44;5097874;28;19928;-81
2021/07/24 12:29:49;;;;;;;;;;;;;;;21.87;100.00;98495.13;5097739;28;19982;-81
2021/07/24 12:32:16;;;;;;;;;;;;;;;21.61;100.00;98485.22;5097760;28;19931;-82
2021/07/24 12:34:43;;;;;;;;;;;;;;;21.91;100.00;98475.78;5097449;28;20294;-82
2021/07/24 12:37:20;;;;;;;;;;;;;;;21.92;100.00;98474.47;5097633;28;19986;-80
2021/07/24 12:39:47;;;;;;;;;;;;;;;21.96;100.00;98474.22;5104452;28;20301;-80
2021/07/24 12:42:14;;;;;;;;;;;;;;;22.47;100.00;98488.75;5097430;28;19973;-82
2021/07/24 12:44:52;;;;;;;;;;;;;;;21.59;100.00;98499.94;5108184;28;20451;-81
2021/07/24 12:47:19;;;;;;;;;;;;;;;21.61;100.00;98514.44;5108675;28;20029;-80
2021/07/24 12:49:48;;;;;;;;;;;;;;;21.62;100.00;98515.97;5097684;28;19950;-82
2021/07/24 12:52:28;;;;;;;;;;;;;;;21.50;100.00;98524.97;5115507;28;19924;-81